x

West Sea Otter (46204) Wave Buoy

1:00 - Mon 24th Apr 2017 All times are PDT. -7 hours from GMT.

  • Sig Wave height 5.6ft
  • Peak Period 12s
  • Wind
    11mph, 13mph gusts
  • Sea Temp 50°f
  • Luft Temp 48°f
  • Sea Pressure 1007.5mb
  • West Sea Otter
  • West Sea Otter

More Historic Weather Station data

Upgrade to MSW Pro to gain access to the past 30 days of data for over 8000 Wavebouys and Weather Stations around the globe.

Join Pro

Comparision Forecast

View Surf forecast
   
Mo 04/24 1:00 5.5ft 12s 11 13 mph 1007.5mb 50f 48f
12:00 6ft 12s 11 13 mph 1007.3mb 50f 48f
So 04/23 11:00 6ft 12s 9 11 mph 1007.4mb 50f 48f
10:00 6ft 12s 11 13 mph 1007.4mb 50f 48f
9:00 6.5ft 12s 9 11 mph 1007.5mb 50f 48f
8:00 7.5ft 9s 9 11 mph 1007.7mb 51f 48f
7:00 8ft 12s 4 9 mph 1008.2mb 51f 49f
6:00 7.5ft 10s 4 7 mph 1008.5mb 51f 49f
5:00 7.5ft 11s 4 7 mph 1008.8mb 51f 49f
4:00 6.5ft 12s 4 9 mph 1008.9mb 50f 48f
3:00 7ft 11s 4 9 mph 1009mb 50f 49f
2:00 6.5ft 11s 9 11 mph 1009.2mb 50f 48f
1:00 7ft 12s 9 11 mph 1009.3mb 50f 48f
12:00 7ft 11s 11 16 mph 1009.3mb 50f 48f
11:00 7ft 12s 11 16 mph 1009.4mb 49f 47f
10:00 7.5ft 12s 18 22 mph 1009.2mb 49f 47f
9:00 7.5ft 12s 18 22 mph 1009.1mb 49f 47f
8:00 8ft 12s 20 25 mph 1008.8mb 49f 47f
7:00 8ft 12s 22 27 mph 1008.5mb 49f 47f
6:00 9ft 11s 22 27 mph 1008.2mb 49f 48f
5:00 9ft 12s 25 31 mph 1008mb 49f 47f
4:00 10ft 10s 22 27 mph 1007.4mb 50f 48f
3:00 9ft 11s 25 29 mph 1006.8mb 50f 48f
2:00 8.5ft 11s 22 27 mph 1006.3mb 49f 48f
1:00 8.5ft 12s 20 22 mph 1005.7mb 49f 49f
12:00 8.5ft 12s 16 22 mph 1005.7mb 49f 49f
Sa 04/22 11:00 8.5ft 12s 13 18 mph 1005.8mb 49f 49f
10:00 9ft 12s 9 11 mph 1005.7mb 50f 49f
9:00 9ft 13s 4 9 mph 1005.7mb 49f 49f
8:00 9.5ft 11s 4 9 mph 1005.7mb 50f 49f
7:00 10ft 12s 9 13 mph 1005.9mb 49f 50f
6:00 8.5ft 12s 11 16 mph 1006.2mb 49f 50f
5:00 9.5ft 12s 16 20 mph 1006.6mb 49f 51f
4:00 9ft 11s 20 25 mph 1006.4mb 49f 51f
3:00 9ft 12s 18 25 mph 1006mb 49f 53f
2:00 9ft 12s 16 20 mph 1005.4mb 49f 54f
1:00 9ft 12s 13 20 mph 1004.7mb 49f 52f
12:00 8ft 12s 13 18 mph 1004.5mb 49f 52f
11:00 8.5ft 12s 13 16 mph 1004.9mb 49f 52f
10:00 9ft 12s 11 16 mph 1005.2mb 49f 51f
9:00 8ft 12s 13 16 mph 1005.6mb 49f 51f
8:00 9ft 12s 11 16 mph 1006.3mb 49f 51f
7:00 7ft 13s 13 18 mph 1006.9mb 49f 51f
6:00 7ft 12s 13 18 mph 1007.8mb 49f 53f
5:00 5ft 13s 13 16 mph 1008.7mb 49f 52f
4:00 5ft 8s 11 16 mph 1009.9mb 49f 51f
3:00 4.5ft 9s 11 13 mph 1010.8mb 49f 51f
2:00 4ft 8s 13 16 mph 1011.6mb 49f 51f
1:00 4ft 8s 18 22 mph 1012.7mb 49f 51f
12:00 4ft 8s 18 22 mph 1013.5mb 49f 51f
Fr 04/21 11:00 4.5ft 9s 13 20 mph 1015mb 50f 50f
10:00 4.5ft 8s 13 18 mph 1016.1mb 50f 49f
9:00 4ft 8s 9 11 mph 1017.4mb 50f 50f
8:00 4.5ft 8s 9
mph
1018.2mb 50f 50f
7:00 4.5ft 8s 2 4 mph 1019.4mb 50f 50f
6:00 4.5ft 8s 2 7 mph 1020.1mb 50f 50f
5:00 4.5ft 8s 4
mph
1021.2mb 50f 51f
4:00 5ft 8s 4 7 mph 1022.1mb 50f 51f
3:00 4.5ft 8s 7 9 mph 1023.2mb 50f 51f
2:00 4.5ft 10s 7 9 mph 1024.2mb 50f 51f
1:00 4.5ft 9s 9 11 mph 1024.9mb 50f 50f
12:00 4.5ft 10s 11 13 mph 1025.6mb 49f 49f
11:00 4.5ft 11s 13 16 mph 1025.8mb 49f 49f
10:00 4.5ft 10s 13 18 mph 1026.1mb 49f 49f
9:00 4.5ft 10s 16 20 mph 1026.1mb 49f 49f
8:00 4.5ft 10s 13 16 mph 1026.7mb 49f 49f
7:00 4.5ft 10s 9 11 mph 1027mb 49f 49f
6:00 4.5ft 11s 11 16 mph 1027mb 49f 49f
5:00 4.5ft 10s 11 13 mph 1027mb 49f 49f
4:00 4.5ft 10s 9
mph
1027.4mb 49f 49f
3:00 4.5ft 11s 11 13 mph 1027.6mb 49f 50f
2:00 4.5ft 11s 11 13 mph 1027.6mb 49f 49f
1:00 5ft 11s 13 16 mph 1027.5mb 49f 49f
12:00 5ft 11s 11 13 mph 1027.4mb 49f 49f
Do 04/20 11:00 5ft 10s 7 9 mph 1026.9mb 49f 49f
10:00 5ft 10s 9 11 mph 1026.2mb 49f 49f
9:00 5.5ft 8s 9 13 mph 1025.5mb 49f 49f
8:00 6ft 9s 13 16 mph 1025mb 49f 49f
7:00 5.5ft 10s 11 13 mph 1024.6mb 49f 50f
6:00 6ft 10s 11 13 mph 1024.5mb 49f 50f
5:00 6ft 11s 11 16 mph 1024.4mb 49f 50f
4:00 5.5ft 10s 13 18 mph 1024.1mb 49f 50f
3:00 5.5ft 10s 11 13 mph 1023.7mb 49f 50f
2:00 5.5ft 9s 9 11 mph 1023mb 49f 50f
1:00 5.5ft 11s 9 11 mph 1022.4mb 49f 50f
12:00 5.5ft 11s 9 11 mph 1021.7mb 49f 49f
11:00 5.5ft 9s 11 13 mph 1021mb 48f 49f
10:00 5.5ft 8s 16 20 mph 1019.9mb 48f 48f